Time;durP1;ratioP1;P1;durP2;ratioP2;P2;SDS_P1;SDS_P2;PMS_P1;PMS_P2;Temp;Humidity;BMP_temperature;BMP_pressure;BME280_temperature;BME280_humidity;BME280_pressure;Samples;Min_cycle;Max_cycle;Signal;HPM_P1;HPM_P2
2022/04/15 00:02:09;;;;;;;8.15;4.65;;;8.10;99.90;;;;;;4988894;28;20038;-73
2022/04/15 00:04:35;;;;;;;7.80;4.05;;;8.10;99.90;;;;;;4997867;28;20487;-73
2022/04/15 00:07:02;;;;;;;7.82;4.18;;;8.10;99.90;;;;;;5012914;28;20096;-72
2022/04/15 00:09:28;;;;;;;8.88;4.40;;;8.10;99.90;;;;;;5013578;28;20103;-73
2022/04/15 00:11:55;;;;;;;7.40;4.65;;;8.10;99.90;;;;;;5011156;28;20037;-72
2022/04/15 00:14:21;;;;;;;7.38;4.32;;;8.00;99.90;;;;;;4997687;28;20120;-72
2022/04/15 00:16:47;;;;;;;12.57;5.60;;;8.10;99.90;;;;;;4996897;28;20121;-73
2022/04/15 00:19:13;;;;;;;10.45;4.72;;;8.10;99.90;;;;;;4997950;28;20104;-72
2022/04/15 00:21:39;;;;;;;12.00;5.53;;;8.00;99.90;;;;;;5012229;28;20056;-72
2022/04/15 00:24:05;;;;;;;9.50;5.05;;;8.00;99.90;;;;;;4994930;28;20421;-73
2022/04/15 00:26:31;;;;;;;12.20;5.68;;;8.00;99.90;;;;;;4996742;28;20486;-72
2022/04/15 00:28:58;;;;;;;8.77;5.30;;;8.10;99.90;;;;;;5013039;28;20115;-72
2022/04/15 00:31:23;;;;;;;10.30;5.47;;;8.10;99.90;;;;;;5012469;28;20046;-72
2022/04/15 00:33:49;;;;;;;14.35;5.90;;;8.10;99.90;;;;;;5012999;28;20512;-72
2022/04/15 00:36:15;;;;;;;8.93;5.13;;;8.10;99.90;;;;;;5012566;28;20038;-72
2022/04/15 00:38:40;;;;;;;10.43;5.30;;;8.10;99.90;;;;;;5012503;28;21712;-72
2022/04/15 00:41:06;;;;;;;10.85;5.20;;;8.20;99.90;;;;;;4994001;28;20117;-73
2022/04/15 00:43:32;;;;;;;10.40;5.40;;;8.20;99.90;;;;;;5012326;28;20042;-72
2022/04/15 00:46:10;;;;;;;11.65;5.78;;;8.30;99.90;;;;;;5013347;28;20048;-72
2022/04/15 00:48:37;;;;;;;11.60;5.22;;;8.20;99.90;;;;;;4993724;28;20045;-72
2022/04/15 00:51:06;;;;;;;9.95;5.40;;;8.20;99.90;;;;;;4977854;28;20387;-72
2022/04/15 00:53:33;;;;;;;12.27;5.53;;;8.20;99.90;;;;;;5012970;28;20038;-72
2022/04/15 00:56:03;;;;;;;12.20;5.85;;;8.20;99.90;;;;;;5012319;28;20421;-72
2022/04/15 00:58:30;;;;;;;10.10;5.70;;;8.30;99.90;;;;;;5012191;28;20052;-72
2022/04/15 01:00:58;;;;;;;10.75;5.57;;;8.30;99.90;;;;;;5011961;28;20046;-72
2022/04/15 01:03:24;;;;;;;11.18;5.70;;;8.30;99.90;;;;;;5012494;28;20410;-72
2022/04/15 01:05:55;;;;;;;13.32;5.80;;;8.30;99.90;;;;;;5013216;28;20046;-72
2022/04/15 01:08:23;;;;;;;8.73;5.30;;;8.40;99.90;;;;;;5011929;28;20545;-72
2022/04/15 01:10:51;;;;;;;10.43;5.53;;;8.40;99.90;;;;;;5013280;28;20034;-73
2022/04/15 01:13:18;;;;;;;9.50;5.15;;;8.40;99.90;;;;;;5011981;28;20038;-73
2022/04/15 01:15:44;;;;;;;10.50;5.60;;;8.40;99.90;;;;;;4996403;28;20582;-72
2022/04/15 01:18:10;;;;;;;11.90;5.82;;;8.30;99.90;;;;;;5011099;28;20042;-72
2022/04/15 01:20:37;;;;;;;11.20;5.63;;;8.30;99.90;;;;;;4996479;28;20042;-72
2022/04/15 01:23:07;;;;;;;9.73;5.30;;;8.40;99.90;;;;;;4995459;28;20050;-72
2022/04/15 01:25:33;;;;;;;10.25;5.53;;;8.50;99.90;;;;;;4995628;28;20131;-73
2022/04/15 01:27:59;;;;;;;10.50;6.10;;;8.50;99.90;;;;;;5012844;28;20097;-73
2022/04/15 01:30:24;;;;;;;10.73;5.80;;;8.50;99.90;;;;;;4995321;28;20533;-72
2022/04/15 01:32:50;;;;;;;8.20;5.03;;;8.50;99.90;;;;;;4995551;28;20116;-73
2022/04/15 01:35:17;;;;;;;8.52;5.40;;;8.50;99.90;;;;;;5011880;28;20398;-72
2022/04/15 01:37:45;;;;;;;9.68;5.60;;;8.50;99.90;;;;;;5011818;28;20052;-72
2022/04/15 01:40:12;;;;;;;10.95;5.88;;;8.50;99.90;;;;;;4993206;28;20046;-72
2022/04/15 01:42:38;;;;;;;10.88;5.47;;;8.60;99.90;;;;;;4993003;28;20046;-72
2022/04/15 01:45:06;;;;;;;9.77;5.85;;;8.60;99.90;;;;;;4992890;28;20104;-72
2022/04/15 01:47:31;;;;;;;12.00;6.15;;;8.60;99.90;;;;;;5002103;28;20045;-72
2022/04/15 01:49:58;;;;;;;12.05;5.90;;;8.60;99.90;;;;;;4990220;28;20164;-72
2022/04/15 01:52:23;;;;;;;9.68;5.45;;;8.60;99.90;;;;;;5010092;28;20132;-73
2022/04/15 01:54:49;;;;;;;10.13;5.82;;;8.60;99.90;;;;;;5010588;28;20542;-73
2022/04/15 01:57:16;;;;;;;10.27;5.05;;;8.70;99.90;;;;;;4994340;28;20406;-72
2022/04/15 01:59:42;;;;;;;10.90;5.72;;;8.70;99.90;;;;;;4977026;28;20120;-73
2022/04/15 02:02:08;;;;;;;12.60;5.97;;;8.60;99.90;;;;;;4995719;28;20034;-72
2022/04/15 02:04:34;;;;;;;9.55;5.45;;;8.70;99.90;;;;;;5012542;28;20398;-73
2022/04/15 02:07:01;;;;;;;11.07;5.53;;;8.70;99.90;;;;;;4998970;28;20376;-73
2022/04/15 02:09:27;;;;;;;10.13;5.30;;;8.70;99.90;;;;;;5009516;28;20046;-73
2022/04/15 02:11:53;;;;;;;9.13;5.53;;;8.70;99.90;;;;;;5001330;28;20084;-73
2022/04/15 02:14:19;;;;;;;9.95;5.60;;;8.70;99.90;;;;;;4996740;28;20049;-72
2022/04/15 02:16:50;;;;;;;12.90;5.70;;;8.80;99.90;;;;;;5015280;28;20477;-72
2022/04/15 02:19:15;;;;;;;9.45;5.00;;;8.80;99.90;;;;;;5001515;28;20091;-72
2022/04/15 02:21:41;;;;;;;8.68;5.45;;;8.90;99.90;;;;;;4995757;28;20038;-72
2022/04/15 02:24:07;;;;;;;12.55;6.32;;;8.90;99.90;;;;;;5012010;28;20057;-72
2022/04/15 02:26:33;;;;;;;9.43;5.15;;;8.80;99.90;;;;;;4996752;28;20064;-72
2022/04/15 02:28:59;;;;;;;8.85;5.40;;;8.80;99.90;;;;;;5008363;28;20039;-72
2022/04/15 02:31:25;;;;;;;8.95;5.05;;;8.90;99.90;;;;;;5011894;28;20383;-72
2022/04/15 02:33:50;;;;;;;10.43;5.50;;;8.90;99.90;;;;;;4995003;28;20038;-73
2022/04/15 02:36:16;;;;;;;9.43;5.75;;;8.80;99.90;;;;;;5012139;28;20042;-73
2022/04/15 02:38:42;;;;;;;11.25;5.70;;;8.80;99.90;;;;;;5011758;28;20131;-72
2022/04/15 02:41:08;;;;;;;10.95;5.45;;;8.90;99.90;;;;;;4995548;28;20040;-72
2022/04/15 02:43:37;;;;;;;10.30;5.63;;;8.80;99.90;;;;;;5011910;28;20046;-73
2022/04/15 02:46:04;;;;;;;8.35;4.55;;;8.80;99.90;;;;;;5015115;28;20096;-73
2022/04/15 02:48:30;;;;;;;8.75;4.32;;;8.80;99.90;;;;;;4999201;28;20137;-72
2022/04/15 02:50:56;;;;;;;9.95;5.03;;;8.80;99.90;;;;;;5015891;28;20045;-73
2022/04/15 02:53:25;;;;;;;10.10;4.55;;;8.80;99.90;;;;;;4999472;28;20034;-73
2022/04/15 02:55:52;;;;;;;9.88;4.53;;;8.80;99.90;;;;;;5015357;28;20053;-73
2022/04/15 02:58:17;;;;;;;10.13;4.30;;;8.80;99.90;;;;;;5015392;28;20125;-72
2022/04/15 03:00:43;;;;;;;11.35;4.68;;;8.80;99.90;;;;;;4999087;28;20133;-72
2022/04/15 03:03:09;;;;;;;8.05;3.97;;;8.80;99.90;;;;;;4999130;28;20413;-72
2022/04/15 03:05:35;;;;;;;10.50;4.85;;;8.80;99.90;;;;;;5015298;28;20454;-73
2022/04/15 03:08:00;;;;;;;10.63;4.32;;;8.80;99.90;;;;;;4998921;28;20048;-72
2022/04/15 03:10:26;;;;;;;9.75;4.20;;;8.80;99.90;;;;;;4999116;28;20129;-72
2022/04/15 03:12:51;;;;;;;10.38;4.35;;;8.80;99.90;;;;;;5015161;28;20552;-73
2022/04/15 03:15:17;;;;;;;8.73;3.80;;;8.80;99.90;;;;;;5000282;28;20108;-72
2022/04/15 03:17:43;;;;;;;7.30;3.53;;;8.90;99.90;;;;;;5025994;28;20509;-72
2022/04/15 03:20:09;;;;;;;8.68;3.88;;;8.80;99.90;;;;;;5015075;28;20058;-72
2022/04/15 03:22:36;;;;;;;11.30;3.58;;;8.90;99.90;;;;;;5030261;28;20041;-72
2022/04/15 03:25:03;;;;;;;9.48;3.53;;;8.90;99.90;;;;;;5038142;28;20045;-72
2022/04/15 03:27:29;;;;;;;7.50;3.17;;;8.80;99.90;;;;;;5038093;28;20045;-72
2022/04/15 03:29:54;;;;;;;7.22;3.35;;;8.90;99.90;;;;;;5038001;28;20546;-72
2022/04/15 03:32:20;;;;;;;7.95;3.10;;;8.90;99.90;;;;;;5021498;28;20037;-73
2022/04/15 03:34:45;;;;;;;8.38;3.28;;;8.90;99.90;;;;;;5008156;28;20048;-72
2022/04/15 03:37:11;;;;;;;11.00;4.72;;;8.80;99.90;;;;;;5018199;28;20083;-72
2022/04/15 03:39:37;;;;;;;10.68;5.82;;;8.80;99.90;;;;;;5017925;28;20033;-73
2022/04/15 03:42:03;;;;;;;10.82;6.68;;;8.80;99.90;;;;;;5001645;28;20120;-73
2022/04/15 03:44:29;;;;;;;14.77;8.93;;;8.90;99.90;;;;;;5001586;28;20124;-73
2022/04/15 03:46:54;;;;;;;13.30;8.25;;;8.90;99.90;;;;;;5017830;28;20120;-73
2022/04/15 03:49:20;;;;;;;13.95;8.80;;;8.90;99.90;;;;;;5017683;28;20092;-73
2022/04/15 03:51:46;;;;;;;13.80;8.38;;;8.90;99.90;;;;;;5001551;28;20120;-73
2022/04/15 03:54:11;;;;;;;13.02;8.23;;;8.90;99.90;;;;;;5017632;28;20033;-73
2022/04/15 03:56:37;;;;;;;11.10;7.60;;;8.90;99.90;;;;;;5000606;28;20033;-73
2022/04/15 03:59:03;;;;;;;10.45;6.57;;;8.90;99.90;;;;;;5001236;28;20048;-73
2022/04/15 04:01:29;;;;;;;11.57;8.15;;;9.00;99.90;;;;;;5001485;28;20405;-73
2022/04/15 04:03:55;;;;;;;11.52;6.93;;;8.90;99.90;;;;;;5017878;28;20446;-73
2022/04/15 04:06:20;;;;;;;10.40;6.55;;;8.80;99.90;;;;;;5001295;28;20080;-73
2022/04/15 04:08:49;;;;;;;8.35;4.97;;;8.80;99.90;;;;;;5001082;28;20045;-73
2022/04/15 04:11:19;;;;;;;8.88;5.32;;;8.80;99.90;;;;;;5001154;28;20120;-72
2022/04/15 04:13:45;;;;;;;9.10;5.10;;;8.70;99.90;;;;;;4999204;28;20034;-73
2022/04/15 04:16:13;;;;;;;8.18;4.63;;;8.60;99.90;;;;;;5007232;28;20037;-73
2022/04/15 04:18:40;;;;;;;8.38;4.78;;;8.60;99.90;;;;;;4991295;28;20041;-73
2022/04/15 04:21:05;;;;;;;8.50;4.70;;;8.60;99.90;;;;;;4999626;28;20136;-73
2022/04/15 04:23:31;;;;;;;9.40;5.15;;;8.60;99.90;;;;;;5000758;28;20589;-73
2022/04/15 04:25:56;;;;;;;8.52;4.80;;;8.60;99.90;;;;;;4991541;28;20042;-72
2022/04/15 04:28:22;;;;;;;8.73;4.80;;;8.50;99.90;;;;;;4997353;28;20129;-73
2022/04/15 04:30:47;;;;;;;7.78;4.97;;;8.60;99.90;;;;;;4981244;28;20042;-73
2022/04/15 04:33:13;;;;;;;8.38;4.63;;;8.50;99.90;;;;;;4981174;28;20045;-73
2022/04/15 04:35:39;;;;;;;7.28;4.53;;;8.50;99.90;;;;;;4997713;28;20504;-73
2022/04/15 04:38:07;;;;;;;9.38;5.40;;;8.50;99.90;;;;;;4989829;28;20122;-73
2022/04/15 04:40:33;;;;;;;8.38;4.97;;;8.40;99.90;;;;;;5017110;28;20048;-73
2022/04/15 04:43:00;;;;;;;8.00;4.97;;;8.30;99.90;;;;;;5017095;28;20045;-73
2022/04/15 04:45:26;;;;;;;7.10;4.47;;;8.40;99.90;;;;;;5000462;28;20076;-73
2022/04/15 04:47:53;;;;;;;9.88;5.00;;;8.40;99.90;;;;;;5000584;28;20077;-73
2022/04/15 04:50:19;;;;;;;9.85;4.95;;;8.30;99.90;;;;;;5000510;28;20411;-73
2022/04/15 04:52:46;;;;;;;8.43;4.60;;;8.30;99.90;;;;;;5016689;28;20030;-73
2022/04/15 04:55:13;;;;;;;8.23;4.80;;;8.30;99.90;;;;;;5016567;28;20168;-73
2022/04/15 04:57:39;;;;;;;7.80;4.30;;;8.40;99.90;;;;;;5016485;28;20069;-73
2022/04/15 05:00:06;;;;;;;7.22;4.90;;;8.50;99.90;;;;;;5000056;28;20041;-73
2022/04/15 05:02:32;;;;;;;8.30;4.95;;;8.40;99.90;;;;;;5000363;28;20041;-73
2022/04/15 05:04:57;;;;;;;7.38;4.20;;;8.50;99.90;;;;;;5000300;28;20102;-73
2022/04/15 05:07:23;;;;;;;8.70;4.88;;;8.40;99.90;;;;;;4999693;28;20046;-73
2022/04/15 05:09:48;;;;;;;9.00;4.60;;;8.40;99.90;;;;;;4999988;28;20046;-73
2022/04/15 05:12:14;;;;;;;8.60;5.47;;;8.30;99.90;;;;;;5016266;28;20041;-73
2022/04/15 05:14:40;;;;;;;7.30;4.05;;;8.40;99.90;;;;;;4996528;28;20044;-73
2022/04/15 05:17:06;;;;;;;6.95;3.78;;;8.30;99.90;;;;;;4996537;28;20048;-73
2022/04/15 05:19:32;;;;;;;6.28;3.78;;;8.30;99.90;;;;;;5012747;28;20045;-73
2022/04/15 05:21:57;;;;;;;5.43;3.13;;;8.20;99.90;;;;;;5013138;28;20125;-73
2022/04/15 05:24:23;;;;;;;6.85;3.63;;;8.30;99.90;;;;;;5012638;28;20567;-73
2022/04/15 05:26:49;;;;;;;6.78;3.00;;;8.30;99.90;;;;;;4996559;28;20041;-73
2022/04/15 05:29:14;;;;;;;5.32;2.90;;;8.30;99.90;;;;;;5012592;28;20095;-73
2022/04/15 05:31:40;;;;;;;6.60;3.13;;;8.20;99.90;;;;;;5012696;28;20509;-73
2022/04/15 05:34:05;;;;;;;6.20;3.00;;;8.20;99.90;;;;;;5012645;28;20512;-73
2022/04/15 05:36:31;;;;;;;6.72;3.10;;;8.20;99.90;;;;;;5012609;28;20042;-73
2022/04/15 05:38:57;;;;;;;5.88;3.13;;;8.30;99.90;;;;;;5012594;28;20052;-73
2022/04/15 05:41:22;;;;;;;5.63;2.88;;;8.30;99.90;;;;;;5012567;28;20063;-73
2022/04/15 05:43:48;;;;;;;7.40;3.22;;;8.30;99.90;;;;;;4996423;28;20088;-73
2022/04/15 05:46:15;;;;;;;6.50;3.40;;;8.30;99.90;;;;;;5012767;28;20565;-74
2022/04/15 05:48:41;;;;;;;9.35;4.03;;;8.30;99.90;;;;;;5012257;28;20050;-74
2022/04/15 05:51:06;;;;;;;6.78;4.10;;;8.30;99.90;;;;;;5015571;28;20371;-74
2022/04/15 05:53:32;;;;;;;7.20;3.47;;;8.30;99.90;;;;;;5012285;28;20033;-74
2022/04/15 05:55:58;;;;;;;7.97;4.00;;;8.20;99.90;;;;;;5014580;28;20046;-74
2022/04/15 05:58:27;;;;;;;7.75;4.10;;;8.20;99.90;;;;;;4998912;28;20120;-74
2022/04/15 06:00:54;;;;;;;7.00;4.28;;;8.30;99.90;;;;;;4998371;28;20378;-74
2022/04/15 06:03:22;;;;;;;7.80;4.20;;;8.20;99.90;;;;;;4997244;28;20038;-74
2022/04/15 06:05:51;;;;;;;8.00;4.60;;;8.20;99.90;;;;;;5012918;28;20068;-74
2022/04/15 06:08:17;;;;;;;9.43;4.45;;;8.20;99.90;;;;;;4998103;28;20076;-74
2022/04/15 06:10:43;;;;;;;9.82;4.65;;;8.30;99.90;;;;;;5001909;28;20037;-74
2022/04/15 06:13:13;;;;;;;10.45;4.97;;;8.30;99.90;;;;;;5015478;28;20044;-74
2022/04/15 06:15:41;;;;;;;7.95;4.55;;;8.20;99.90;;;;;;5013183;28;20405;-73
2022/04/15 06:18:07;;;;;;;9.32;4.78;;;8.20;99.90;;;;;;5015105;28;20049;-74
2022/04/15 06:20:34;;;;;;;9.15;4.97;;;8.20;99.90;;;;;;5016815;28;20120;-74
2022/04/15 06:23:00;;;;;;;9.25;4.57;;;8.20;99.90;;;;;;4999889;28;20053;-74
2022/04/15 06:25:26;;;;;;;9.07;5.18;;;8.20;99.90;;;;;;4998548;28;20041;-74
2022/04/15 06:27:54;;;;;;;9.82;5.47;;;8.20;99.90;;;;;;4996925;28;20048;-73
2022/04/15 06:30:21;;;;;;;8.43;5.05;;;8.20;99.90;;;;;;4996520;28;20045;-74
2022/04/15 06:32:47;;;;;;;10.52;5.82;;;8.20;99.90;;;;;;5018196;28;20038;-74
2022/04/15 06:35:13;;;;;;;9.63;5.75;;;8.30;99.90;;;;;;5018255;28;20034;-74
2022/04/15 06:37:39;;;;;;;11.25;6.43;;;8.30;99.90;;;;;;5015408;28;20120;-74
2022/04/15 06:40:05;;;;;;;10.90;5.95;;;8.30;99.90;;;;;;5019176;28;20168;-74
2022/04/15 06:42:31;;;;;;;9.02;5.40;;;8.30;99.90;;;;;;5007574;28;20490;-74
2022/04/15 06:44:59;;;;;;;10.48;5.70;;;8.40;99.90;;;;;;5018407;28;20044;-74
2022/04/15 06:47:25;;;;;;;9.98;6.10;;;8.40;99.90;;;;;;5014204;28;20099;-74
2022/04/15 06:49:50;;;;;;;11.52;6.50;;;8.40;99.90;;;;;;5018531;28;20520;-74
2022/04/15 06:52:18;;;;;;;10.52;6.47;;;8.50;99.90;;;;;;5001759;28;20061;-74
2022/04/15 06:54:43;;;;;;;11.82;6.65;;;8.50;99.90;;;;;;5002586;28;20037;-74
2022/04/15 06:57:09;;;;;;;12.90;6.40;;;8.50;99.90;;;;;;5015951;28;20043;-74
2022/04/15 06:59:36;;;;;;;12.70;7.03;;;8.50;99.90;;;;;;5017504;28;20040;-74
2022/04/15 07:02:02;;;;;;;12.27;6.90;;;8.50;99.90;;;;;;5018270;28;20037;-74
2022/04/15 07:04:28;;;;;;;12.93;7.72;;;8.50;99.90;;;;;;5002263;28;20030;-74
2022/04/15 07:06:55;;;;;;;11.63;7.20;;;8.50;99.90;;;;;;5017634;28;20429;-74
2022/04/15 07:09:20;;;;;;;12.80;8.30;;;8.60;99.90;;;;;;5018088;28;20041;-73
2022/04/15 07:11:46;;;;;;;12.73;7.82;;;8.50;99.90;;;;;;5017329;28;20087;-74
2022/04/15 07:14:12;;;;;;;13.10;7.85;;;8.60;99.90;;;;;;5001269;28;20135;-73
2022/04/15 07:16:38;;;;;;;13.63;7.93;;;8.50;99.90;;;;;;5017219;28;20037;-73
2022/04/15 07:19:04;;;;;;;15.73;9.50;;;8.50;99.90;;;;;;5018261;28;20557;-73
2022/04/15 07:21:42;;;;;;;12.90;7.70;;;8.60;99.90;;;;;;5000475;28;20117;-73
2022/04/15 07:24:08;;;;;;;13.23;7.60;;;8.70;99.90;;;;;;4998170;28;20053;-73
2022/04/15 07:26:34;;;;;;;15.35;8.95;;;8.70;99.90;;;;;;4999117;28;20057;-73
2022/04/15 07:29:02;;;;;;;15.77;8.88;;;8.70;99.90;;;;;;5001933;28;20049;-73
2022/04/15 07:31:27;;;;;;;15.82;8.48;;;8.70;99.90;;;;;;5017494;28;20430;-73
2022/04/15 07:33:53;;;;;;;16.02;9.52;;;8.80;99.90;;;;;;5000725;28;20037;-73
2022/04/15 07:39:07;;;;;;;18.77;9.85;;;8.80;99.90;;;;;;5015962;28;20055;-73
2022/04/15 07:41:36;;;;;;;15.88;10.52;;;8.80;99.90;;;;;;5016870;28;20038;-73
2022/04/15 07:44:03;;;;;;;14.60;9.25;;;8.80;99.90;;;;;;4998345;28;20033;-74
2022/04/15 07:46:29;;;;;;;20.45;10.40;;;8.80;99.90;;;;;;4997709;28;20046;-74
2022/04/15 07:48:54;;;;;;;17.75;9.32;;;8.80;99.90;;;;;;4998982;28;20072;-74
2022/04/15 07:51:20;;;;;;;16.35;8.98;;;8.90;99.90;;;;;;5015395;28;20116;-75
2022/04/15 07:53:46;;;;;;;15.90;10.25;;;9.00;99.90;;;;;;5001309;28;20079;-74
2022/04/15 07:56:11;;;;;;;17.63;9.75;;;9.00;99.90;;;;;;5000555;28;20125;-74
2022/04/15 07:58:37;;;;;;;17.48;9.80;;;9.00;99.90;;;;;;4997754;28;20041;-74
2022/04/15 08:01:02;;;;;;;15.25;8.65;;;9.00;99.90;;;;;;4996899;28;20046;-74
2022/04/15 08:03:28;;;;;;;15.23;8.52;;;9.10;99.90;;;;;;4981948;28;20071;-74
2022/04/15 08:05:54;;;;;;;15.73;8.80;;;9.10;99.90;;;;;;4997499;28;20124;-74
2022/04/15 08:08:20;;;;;;;14.48;8.10;;;9.10;99.90;;;;;;5004319;28;20033;-74
2022/04/15 08:10:50;;;;;;;12.70;7.90;;;9.10;99.90;;;;;;5016839;28;20037;-74
2022/04/15 08:13:17;;;;;;;13.77;6.80;;;9.10;99.90;;;;;;5000260;28;20042;-74
2022/04/15 08:15:42;;;;;;;14.20;7.38;;;9.20;99.90;;;;;;5000609;28;20037;-74
2022/04/15 08:18:08;;;;;;;12.80;7.07;;;9.20;99.90;;;;;;5015278;28;20044;-74
2022/04/15 08:20:33;;;;;;;12.52;6.65;;;9.20;99.90;;;;;;5015773;28;20049;-74
2022/04/15 08:22:59;;;;;;;15.13;6.47;;;9.30;99.90;;;;;;5000467;28;20060;-74
2022/04/15 08:25:24;;;;;;;11.10;6.65;;;9.30;99.90;;;;;;5015886;28;20041;-74
2022/04/15 08:27:50;;;;;;;9.70;5.97;;;9.30;99.90;;;;;;5017057;28;20053;-74
2022/04/15 08:30:16;;;;;;;10.05;5.60;;;9.40;99.90;;;;;;5015862;28;20405;-74
2022/04/15 08:32:41;;;;;;;10.93;5.90;;;9.40;99.90;;;;;;5016658;28;20037;-74
2022/04/15 08:35:11;;;;;;;11.35;5.60;;;9.40;99.90;;;;;;4999563;28;20045;-74
2022/04/15 08:37:38;;;;;;;11.40;5.75;;;9.40;99.90;;;;;;5016823;28;20041;-74
2022/04/15 08:40:04;;;;;;;10.80;5.57;;;9.30;99.90;;;;;;5014649;28;20400;-74
2022/04/15 08:42:30;;;;;;;10.13;5.13;;;9.50;99.90;;;;;;5012576;28;20037;-73
2022/04/15 08:44:56;;;;;;;11.32;5.47;;;9.60;99.90;;;;;;5014697;28;20387;-74
2022/04/15 08:47:22;;;;;;;10.48;5.20;;;9.60;99.90;;;;;;4998468;28;20048;-74
2022/04/15 08:49:48;;;;;;;9.45;4.88;;;9.70;99.90;;;;;;5014202;28;20030;-74
2022/04/15 08:52:17;;;;;;;9.63;5.25;;;9.80;99.90;;;;;;5015275;28;20036;-74
2022/04/15 08:54:44;;;;;;;9.20;4.72;;;9.90;99.90;;;;;;5011332;28;20477;-74
2022/04/15 08:57:10;;;;;;;10.65;5.40;;;9.90;99.90;;;;;;5015545;28;20505;-74
2022/04/15 08:59:36;;;;;;;9.90;5.10;;;10.00;99.90;;;;;;4999093;28;20099;-74
2022/04/15 09:02:02;;;;;;;10.20;5.72;;;10.10;99.90;;;;;;5009495;28;20048;-74
2022/04/15 09:04:28;;;;;;;14.13;6.40;;;10.10;99.90;;;;;;5007953;28;20410;-74
2022/04/15 09:06:59;;;;;;;11.52;6.40;;;10.00;99.90;;;;;;5014227;28;20037;-74
2022/04/15 09:09:32;;;;;;;11.77;6.13;;;10.20;99.90;;;;;;5013928;28;20038;-74
2022/04/15 09:12:00;;;;;;;9.38;6.10;;;10.20;99.90;;;;;;5005701;28;20121;-74
2022/04/15 09:14:26;;;;;;;11.60;6.07;;;10.10;99.90;;;;;;4998550;28;20060;-74
2022/04/15 09:16:52;;;;;;;10.27;6.20;;;10.10;99.90;;;;;;5015812;28;20052;-74
2022/04/15 09:19:19;;;;;;;10.48;6.18;;;10.20;99.90;;;;;;5014140;28;20037;-74
2022/04/15 09:21:54;;;;;;;9.63;6.07;;;10.30;99.90;;;;;;4996418;28;20163;-74
2022/04/15 09:24:33;;;;;;;10.40;5.72;;;10.40;99.90;;;;;;5013616;28;20533;-74
2022/04/15 09:27:03;;;;;;;11.73;6.57;;;10.50;99.90;;;;;;4996592;28;20517;-74
2022/04/15 09:29:38;;;;;;;13.07;6.85;;;10.70;99.90;;;;;;5004432;28;20132;-75
2022/04/15 09:32:09;;;;;;;10.13;6.07;;;10.80;99.90;;;;;;4999172;28;20037;-75
2022/04/15 09:34:51;;;;;;;9.93;6.10;;;10.80;99.90;;;;;;5015349;28;20037;-75
2022/04/15 09:37:17;;;;;;;11.25;6.18;;;10.80;99.90;;;;;;5016841;28;20038;-75
2022/04/15 09:40:01;;;;;;;11.40;6.00;;;10.70;99.90;;;;;;5005142;28;20062;-74
2022/04/15 09:42:27;;;;;;;12.00;6.18;;;10.70;99.90;;;;;;4995495;28;20049;-75
2022/04/15 09:44:52;;;;;;;10.38;5.80;;;10.70;99.90;;;;;;4999351;28;20044;-74
2022/04/15 09:47:18;;;;;;;10.77;7.03;;;10.70;99.90;;;;;;4996393;28;20047;-75
2022/04/15 09:49:44;;;;;;;10.52;5.78;;;10.70;99.90;;;;;;5015355;28;20045;-74
2022/04/15 09:52:09;;;;;;;10.70;6.10;;;10.60;99.90;;;;;;4993635;28;20088;-74
2022/04/15 09:54:38;;;;;;;11.02;6.13;;;10.70;99.90;;;;;;4995712;28;20452;-74
2022/04/15 09:57:04;;;;;;;10.88;6.20;;;10.70;99.90;;;;;;5013161;28;20548;-74
2022/04/15 09:59:30;;;;;;;12.55;6.45;;;10.70;99.90;;;;;;5015889;28;20436;-75
2022/04/15 10:01:57;;;;;;;11.75;6.22;;;10.80;99.90;;;;;;5001782;28;20038;-75
2022/04/15 10:04:26;;;;;;;9.25;5.35;;;10.80;99.90;;;;;;5001148;28;20041;-74
2022/04/15 10:06:53;;;;;;;8.90;5.10;;;10.90;99.90;;;;;;5014904;28;20132;-75
2022/04/15 10:09:19;;;;;;;10.35;5.80;;;11.10;99.90;;;;;;4994412;28;20042;-74
2022/04/15 10:11:46;;;;;;;10.02;5.70;;;11.10;99.90;;;;;;4998591;28;20048;-74
2022/04/15 10:14:13;;;;;;;10.60;5.90;;;11.10;99.90;;;;;;4998679;28;20044;-74
2022/04/15 10:16:40;;;;;;;10.70;5.65;;;10.90;99.90;;;;;;4998970;28;20548;-75
2022/04/15 10:19:07;;;;;;;11.80;6.03;;;10.90;99.90;;;;;;5015010;28;20041;-74
2022/04/15 10:21:41;;;;;;;10.98;5.70;;;11.00;99.90;;;;;;5012138;28;20041;-74
2022/04/15 10:24:09;;;;;;;9.40;5.78;;;11.00;99.90;;;;;;5011615;28;20129;-75
2022/04/15 10:26:46;;;;;;;12.77;6.43;;;11.10;99.90;;;;;;5011209;28;20469;-75
2022/04/15 10:29:13;;;;;;;12.77;6.57;;;11.00;99.90;;;;;;4998984;28;20045;-76
2022/04/15 10:31:39;;;;;;;11.20;6.13;;;11.00;99.90;;;;;;5010219;28;20125;-73
2022/04/15 10:34:19;;;;;;;9.73;6.50;;;11.10;99.90;;;;;;4993063;28;20096;-73
2022/04/15 10:36:52;;;;;;;11.07;6.45;;;11.10;99.90;;;;;;5011884;28;20048;-73
2022/04/15 10:39:20;;;;;;;10.07;6.18;;;11.10;99.90;;;;;;4985885;28;20042;-73
2022/04/15 10:41:45;;;;;;;9.60;5.90;;;11.10;99.90;;;;;;5007452;28;20172;-74
2022/04/15 10:44:36;;;;;;;10.98;6.22;;;11.00;99.90;;;;;;4993853;28;20117;-74
2022/04/15 10:47:12;;;;;;;9.27;5.28;;;11.00;99.90;;;;;;5011846;28;20048;-74
2022/04/15 10:49:52;;;;;;;12.32;6.60;;;11.00;99.90;;;;;;5004502;28;20410;-74
2022/04/15 10:52:21;;;;;;;11.43;6.10;;;10.90;99.90;;;;;;4995103;28;20133;-74
2022/04/15 10:54:51;;;;;;;10.75;5.95;;;10.90;99.90;;;;;;5010968;28;20037;-74
2022/04/15 10:57:18;;;;;;;12.15;6.35;;;11.00;99.90;;;;;;5011224;28;20081;-74
2022/04/15 11:02:44;;;;;;;10.50;5.93;;;10.90;99.90;;;;;;5010260;28;20041;-74
2022/04/15 11:05:12;;;;;;;11.80;6.07;;;10.90;99.90;;;;;;5002192;28;20034;-74
2022/04/15 11:07:57;;;;;;;9.98;6.07;;;10.80;99.90;;;;;;5005587;28;20490;-74
2022/04/15 11:11:01;;;;;;;11.23;6.10;;;10.90;99.90;;;;;;4996921;28;20092;-74
2022/04/15 11:13:35;;;;;;;11.23;6.05;;;10.80;99.90;;;;;;4998831;28;20042;-74
2022/04/15 11:16:13;;;;;;;11.30;6.25;;;10.80;99.90;;;;;;4998119;28;20085;-74
2022/04/15 11:18:55;;;;;;;12.18;7.00;;;10.80;99.90;;;;;;5014840;28;20049;-74
2022/04/15 11:21:22;;;;;;;;;;;10.80;99.90;;;;;;4997137;28;20049;-74
2022/04/15 11:23:53;;;;;;;10.68;6.43;;;10.80;99.90;;;;;;4997672;28;19922;-74
2022/04/15 11:26:21;;;;;;;8.82;5.90;;;10.80;99.90;;;;;;4994801;28;20052;-74
2022/04/15 11:28:48;;;;;;;10.13;6.32;;;10.80;99.90;;;;;;5013604;28;20375;-74
2022/04/15 11:31:30;;;;;;;9.50;6.07;;;10.90;99.90;;;;;;4998259;28;20045;-74
2022/04/15 11:34:13;;;;;;;10.15;6.43;;;10.90;99.90;;;;;;5014071;28;20100;-74
2022/04/15 11:36:40;;;;;;;10.32;6.68;;;10.90;99.90;;;;;;4996661;28;20125;-74
2022/04/15 11:39:08;;;;;;;10.43;5.90;;;10.90;99.90;;;;;;5014411;28;20080;-74
2022/04/15 11:41:34;;;;;;;9.82;6.30;;;10.90;99.90;;;;;;4996553;28;20458;-74
2022/04/15 11:44:03;;;;;;;10.57;5.75;;;10.80;99.90;;;;;;5013990;28;20056;-74
2022/04/15 11:46:35;;;;;;;10.95;6.50;;;10.80;99.90;;;;;;5012194;28;20053;-74
2022/04/15 11:49:01;;;;;;;11.85;6.60;;;10.70;99.90;;;;;;4997500;28;20057;-74
2022/04/15 11:51:28;;;;;;;12.50;7.55;;;10.80;99.90;;;;;;5012824;28;20421;-74
2022/04/15 11:53:54;;;;;;;10.15;6.35;;;10.80;99.90;;;;;;4997815;28;20126;-74
2022/04/15 11:56:25;;;;;;;11.63;6.60;;;10.70;99.90;;;;;;5010135;28;20060;-74
2022/04/15 11:58:51;;;;;;;10.95;6.90;;;10.70;99.90;;;;;;5013914;28;20401;-74
2022/04/15 12:01:31;;;;;;;8.80;5.88;;;10.70;99.90;;;;;;5014012;28;20112;-74
2022/04/15 12:03:58;;;;;;;11.80;7.10;;;10.70;99.90;;;;;;5013152;28;20096;-74
2022/04/15 12:06:25;;;;;;;10.90;6.03;;;10.80;99.90;;;;;;4996938;28;20076;-74
2022/04/15 12:08:51;;;;;;;11.10;5.95;;;10.70;99.90;;;;;;5011777;28;20037;-74
2022/04/15 12:11:25;;;;;;;11.05;6.45;;;10.80;99.90;;;;;;4996723;28;20103;-74
2022/04/15 12:13:59;;;;;;;10.07;6.20;;;10.90;99.90;;;;;;4997825;28;20124;-74
2022/04/15 12:16:28;;;;;;;10.02;5.70;;;10.80;99.90;;;;;;5013371;28;20069;-74
2022/04/15 12:18:56;;;;;;;9.77;6.13;;;10.80;99.90;;;;;;5012993;28;20050;-74
2022/04/15 12:21:21;;;;;;;11.75;6.47;;;10.90;99.90;;;;;;5013601;28;20046;-74
2022/04/15 12:24:05;;;;;;;11.35;6.32;;;10.80;99.90;;;;;;4997210;28;20517;-74
2022/04/15 12:26:41;;;;;;;11.57;6.38;;;10.80;99.90;;;;;;4994935;28;20050;-73
2022/04/15 12:31:51;;;;;;;11.35;6.10;;;10.70;99.90;;;;;;5012901;28;20441;-74
2022/04/15 12:34:17;;;;;;;10.05;6.45;;;10.80;99.90;;;;;;5013244;28;20045;-74
2022/04/15 12:36:45;;;;;;;9.20;6.10;;;10.80;99.90;;;;;;5013481;28;20069;-74
2022/04/15 12:39:13;;;;;;;10.80;7.10;;;10.80;99.90;;;;;;4997526;28;20042;-74
2022/04/15 12:41:41;;;;;;;11.23;6.75;;;10.80;99.90;;;;;;5013929;28;20095;-74
2022/04/15 12:44:23;;;;;;;9.38;5.60;;;10.90;99.90;;;;;;5024060;28;20033;-74
2022/04/15 12:47:00;;;;;;;9.75;6.45;;;11.10;99.90;;;;;;4996764;28;20085;-74
2022/04/15 12:49:35;;;;;;;10.07;6.40;;;11.00;99.90;;;;;;5004558;28;20045;-75
2022/04/15 12:52:07;;;;;;;11.13;6.03;;;10.70;99.90;;;;;;5013317;28;20048;-74
2022/04/15 12:54:32;;;;;;;10.88;6.10;;;10.70;99.90;;;;;;4996998;28;20064;-74
2022/04/15 12:56:58;;;;;;;10.38;5.78;;;10.80;99.90;;;;;;5012871;28;20541;-73
2022/04/15 12:59:26;;;;;;;11.50;6.60;;;10.80;99.90;;;;;;5000598;28;20084;-74